createdAt,value
2018-08-09T00:02:19.545Z,7.03
2018-08-09T00:04:48.638Z,6.37
2018-08-09T00:07:17.733Z,6.77
2018-08-09T00:09:46.821Z,6.70
2018-08-09T00:12:20.764Z,6.97
2018-08-09T00:14:50.120Z,7.30
2018-08-09T00:17:19.433Z,8.10
2018-08-09T00:19:48.914Z,7.40
2018-08-09T00:22:18.980Z,6.90
2018-08-09T00:24:48.385Z,7.80
2018-08-09T00:27:17.797Z,7.40
2018-08-09T00:29:47.177Z,7.50
2018-08-09T00:32:23.809Z,8.37
2018-08-09T00:34:53.252Z,7.13
2018-08-09T00:37:22.650Z,6.57
2018-08-09T00:39:51.957Z,7.10
2018-08-09T00:42:22.369Z,7.07
2018-08-09T00:44:51.832Z,7.00
2018-08-09T00:47:21.167Z,6.93
2018-08-09T00:49:50.499Z,7.10
2018-08-09T00:52:49.938Z,7.93
2018-08-09T00:55:19.468Z,7.57
2018-08-09T00:57:48.815Z,6.03
2018-08-09T01:00:18.145Z,5.83
2018-08-09T01:02:47.483Z,6.37
2018-08-09T01:05:16.889Z,6.70
2018-08-09T01:07:46.313Z,6.83
2018-08-09T01:10:15.705Z,7.37
2018-08-09T01:12:45.089Z,7.77
2018-08-09T01:15:14.530Z,7.10
2018-08-09T01:17:44.001Z,7.70
2018-08-09T01:20:13.413Z,7.57
2018-08-09T01:22:42.804Z,7.60
2018-08-09T01:25:12.225Z,7.60
2018-08-09T01:27:41.656Z,7.30
2018-08-09T01:30:10.994Z,7.10
2018-08-09T01:32:48.370Z,7.90
2018-08-09T01:35:17.593Z,7.97
2018-08-09T01:37:46.732Z,7.27
2018-08-09T01:40:15.860Z,6.93
2018-08-09T01:43:02.260Z,6.90
2018-08-09T01:45:31.368Z,6.37
2018-08-09T01:48:00.253Z,7.10
2018-08-09T01:50:30.368Z,6.47
2018-08-09T01:52:59.480Z,6.53
2018-08-09T01:55:28.593Z,6.70
2018-08-09T01:57:57.909Z,6.87
2018-08-09T02:01:17.709Z,7.07
2018-08-09T02:03:47.096Z,7.07
2018-08-09T02:06:17.490Z,6.90
2018-08-09T02:08:47.417Z,7.73
2018-08-09T02:11:16.849Z,7.07
2018-08-09T02:13:46.283Z,6.87
2018-08-09T02:16:15.757Z,7.10
2018-08-09T02:18:45.197Z,7.33
2018-08-09T02:21:14.564Z,7.10
2018-08-09T02:23:43.953Z,6.97
2018-08-09T02:26:13.332Z,7.83
2018-08-09T02:28:42.736Z,8.00
2018-08-09T02:31:16.526Z,7.60
2018-08-09T02:33:45.924Z,7.90
2018-08-09T02:36:15.386Z,6.63
2018-08-09T02:38:44.721Z,7.57
2018-08-09T02:41:14.270Z,7.50
2018-08-09T02:43:43.757Z,7.77
2018-08-09T02:46:13.176Z,9.10
2018-08-09T02:48:42.634Z,8.70
2018-08-09T02:51:16.426Z,9.10
2018-08-09T02:53:45.617Z,9.80
2018-08-09T02:56:15.015Z,9.03
2018-08-09T02:58:44.418Z,9.10
2018-08-09T03:02:59.615Z,9.70
2018-08-09T03:05:28.999Z,9.80
2018-08-09T03:07:58.393Z,9.33
2018-08-09T03:10:27.903Z,9.00
2018-08-09T03:12:57.265Z,8.77
2018-08-09T03:15:26.770Z,9.23
2018-08-09T03:17:56.142Z,8.47
2018-08-09T03:20:34.050Z,8.73
2018-08-09T03:23:03.429Z,8.90
2018-08-09T03:25:32.800Z,9.90
2018-08-09T03:28:02.285Z,8.47
2018-08-09T03:30:31.776Z,9.23
2018-08-09T03:33:01.105Z,8.07
2018-08-09T03:35:30.497Z,8.20
2018-08-09T03:37:59.881Z,9.03
2018-08-09T03:40:30.306Z,8.03
2018-08-09T03:42:59.686Z,8.50
2018-08-09T03:45:29.133Z,8.73
2018-08-09T03:47:58.521Z,7.93
2018-08-09T03:50:27.914Z,8.40
2018-08-09T03:52:57.229Z,7.97
2018-08-09T03:55:26.769Z,8.80
2018-08-09T03:57:56.189Z,8.43
2018-08-09T04:00:26.768Z,8.53
2018-08-09T04:02:55.801Z,9.37
2018-08-09T04:05:25.198Z,8.50
2018-08-09T04:07:54.566Z,7.93
2018-08-09T04:10:23.933Z,8.17
2018-08-09T04:12:53.329Z,8.30
2018-08-09T04:15:22.701Z,8.40
2018-08-09T04:17:52.072Z,9.17
2018-08-09T04:20:26.902Z,8.20
2018-08-09T04:22:56.344Z,9.20
2018-08-09T04:25:25.706Z,8.53
2018-08-09T04:27:55.153Z,8.03
2018-08-09T04:30:24.638Z,7.50
2018-08-09T04:32:54.053Z,8.57
2018-08-09T04:35:23.389Z,7.97
2018-08-09T04:37:52.807Z,8.17
2018-08-09T04:40:31.117Z,8.40
2018-08-09T04:43:00.443Z,9.57
2018-08-09T04:45:29.790Z,9.00
2018-08-09T04:47:59.142Z,8.70
2018-08-09T04:50:47.268Z,9.07
2018-08-09T04:53:16.642Z,10.50
2018-08-09T04:55:46.017Z,10.20
2018-08-09T04:58:15.458Z,9.40
2018-08-09T05:00:47.933Z,10.20
2018-08-09T05:03:17.422Z,9.37
2018-08-09T05:05:46.783Z,9.80
2018-08-09T05:08:16.236Z,9.27
2018-08-09T05:10:47.672Z,10.07
2018-08-09T05:13:16.954Z,10.90
2018-08-09T05:15:46.319Z,10.43
2018-08-09T05:18:15.797Z,10.30
2018-08-09T05:20:50.883Z,11.83
2018-08-09T05:23:20.268Z,11.97
2018-08-09T05:25:49.729Z,11.80
2018-08-09T05:28:19.082Z,11.40
2018-08-09T05:30:48.497Z,12.53
2018-08-09T05:33:17.932Z,12.27
2018-08-09T05:35:47.358Z,12.53
2018-08-09T05:38:16.890Z,13.67
2018-08-09T05:40:46.577Z,14.43
2018-08-09T05:43:16.100Z,13.23
2018-08-09T05:45:45.566Z,13.00
2018-08-09T05:48:14.985Z,11.70
2018-08-09T05:50:49.345Z,13.07
2018-08-09T05:53:18.838Z,14.10
2018-08-09T05:55:48.221Z,13.03
2018-08-09T05:58:17.693Z,14.07
2018-08-09T06:00:56.951Z,13.40
2018-08-09T06:03:26.326Z,13.70
2018-08-09T06:05:55.837Z,13.70
2018-08-09T06:08:25.258Z,12.93
2018-08-09T06:11:02.668Z,12.43
2018-08-09T06:13:32.167Z,11.97
2018-08-09T06:16:01.493Z,12.40
2018-08-09T06:18:30.945Z,12.10
2018-08-09T06:21:07.604Z,11.50
2018-08-09T06:23:37.025Z,10.90
2018-08-09T06:26:06.593Z,10.27
2018-08-09T06:28:36.169Z,10.67
2018-08-09T06:31:07.677Z,10.07
2018-08-09T06:33:37.082Z,9.53
2018-08-09T06:36:06.516Z,9.47
2018-08-09T06:38:35.876Z,10.03
2018-08-09T06:41:06.429Z,9.70
2018-08-09T06:43:35.844Z,8.80
2018-08-09T06:46:05.322Z,8.60
2018-08-09T06:48:34.401Z,8.03
2018-08-09T06:51:05.561Z,8.53
2018-08-09T06:53:34.702Z,8.20
2018-08-09T06:56:03.887Z,7.60
2018-08-09T06:58:33.217Z,8.50
2018-08-09T07:01:07.401Z,7.35
2018-08-09T07:03:36.777Z,8.28
2018-08-09T07:06:05.884Z,7.22
2018-08-09T07:08:35.274Z,7.83
2018-08-09T07:11:04.714Z,8.28
2018-08-09T07:13:34.093Z,7.55
2018-08-09T07:16:03.204Z,7.60
2018-08-09T07:18:33.077Z,6.87
2018-08-09T07:21:11.150Z,6.97
2018-08-09T07:23:41.025Z,7.85
2018-08-09T07:26:10.440Z,6.67
2018-08-09T07:28:39.525Z,6.80
2018-08-09T07:31:15.922Z,6.70
2018-08-09T07:33:45.459Z,6.80
2018-08-09T07:36:15.737Z,7.25
2018-08-09T07:38:45.132Z,7.05
2018-08-09T07:41:20.026Z,7.70
2018-08-09T07:43:49.438Z,7.47
2018-08-09T07:46:19.195Z,7.75
2018-08-09T07:48:48.624Z,7.67
2018-08-09T07:51:30.508Z,8.03
2018-08-09T07:53:59.841Z,9.08
2018-08-09T07:56:29.264Z,9.80
2018-08-09T07:58:58.757Z,9.55
2018-08-09T08:01:31.653Z,9.35
2018-08-09T08:04:01.019Z,9.30
2018-08-09T08:06:30.479Z,8.65
2018-08-09T08:08:59.874Z,8.95
2018-08-09T08:11:30.365Z,7.40
2018-08-09T08:13:59.850Z,7.50
2018-08-09T08:16:29.291Z,7.05
2018-08-09T08:18:58.795Z,6.67
2018-08-09T08:21:33.362Z,6.70
2018-08-09T08:24:02.831Z,7.42
2018-08-09T08:26:31.907Z,6.22
2018-08-09T08:29:01.745Z,6.28
2018-08-09T08:31:52.985Z,6.60
2018-08-09T08:34:22.414Z,6.40
2018-08-09T08:36:51.830Z,5.97
2018-08-09T08:39:21.211Z,6.47
2018-08-09T08:41:54.878Z,6.95
2018-08-09T08:44:24.249Z,6.03
2018-08-09T08:46:53.705Z,6.42
2018-08-09T08:49:23.170Z,5.78
2018-08-09T08:51:54.531Z,6.47
2018-08-09T08:54:23.893Z,5.80
2018-08-09T08:56:53.209Z,6.50
2018-08-09T08:59:30.390Z,6.37
2018-08-09T09:02:04.125Z,6.53
2018-08-09T09:04:41.316Z,6.53
2018-08-09T09:07:10.592Z,6.15
2018-08-09T09:09:39.706Z,6.42
2018-08-09T09:12:10.255Z,6.67
2018-08-09T09:14:39.797Z,6.30
2018-08-09T09:17:09.233Z,6.40
2018-08-09T09:19:39.032Z,5.75
2018-08-09T09:22:08.573Z,6.67
2018-08-09T09:24:37.943Z,6.28
2018-08-09T09:27:07.409Z,5.58
2018-08-09T09:29:36.835Z,5.15
2018-08-09T09:32:07.285Z,6.15
2018-08-09T09:34:36.697Z,6.03
2018-08-09T09:37:06.098Z,5.78
2018-08-09T09:39:35.614Z,5.20
2018-08-09T09:42:06.009Z,5.17
2018-08-09T09:44:35.430Z,5.40
2018-08-09T09:47:04.812Z,5.72
2018-08-09T09:49:34.366Z,5.25
2018-08-09T09:52:09.243Z,5.50
2018-08-09T09:54:38.910Z,4.90
2018-08-09T09:57:08.390Z,5.08
2018-08-09T09:59:37.785Z,4.78
2018-08-09T10:02:07.330Z,5.65
2018-08-09T10:04:36.750Z,5.45
2018-08-09T10:07:06.219Z,5.35
2018-08-09T10:09:35.601Z,5.35
2018-08-09T10:12:07.133Z,4.90
2018-08-09T10:14:36.509Z,4.92
2018-08-09T10:17:05.938Z,4.45
2018-08-09T10:19:35.313Z,5.03
2018-08-09T10:22:05.778Z,4.47
2018-08-09T10:24:35.681Z,5.35
2018-08-09T10:27:05.150Z,5.00
2018-08-09T10:29:41.730Z,4.47
2018-08-09T10:32:13.174Z,4.53
2018-08-09T10:34:47.585Z,4.50
2018-08-09T10:37:17.054Z,4.58
2018-08-09T10:39:46.550Z,4.45
2018-08-09T10:42:25.543Z,3.95
2018-08-09T10:44:55.030Z,3.87
2018-08-09T10:47:24.556Z,4.50
2018-08-09T10:49:53.625Z,4.20
2018-08-09T10:52:34.080Z,3.72
2018-08-09T10:55:12.515Z,4.40
2018-08-09T10:57:41.366Z,4.40
2018-08-09T11:00:12.195Z,4.50
2018-08-09T11:02:41.781Z,3.60
2018-08-09T11:05:11.182Z,4.40
2018-08-09T11:07:40.312Z,4.80
2018-08-09T11:10:10.153Z,4.22
2018-08-09T11:12:39.696Z,4.10
2018-08-09T11:15:10.608Z,4.60
2018-08-09T11:17:40.066Z,4.75
2018-08-09T11:20:09.670Z,4.25
2018-08-09T11:23:00.497Z,4.17
2018-08-09T11:25:29.970Z,4.08
2018-08-09T11:27:59.437Z,4.80
2018-08-09T11:30:37.508Z,3.45
2018-08-09T11:33:06.909Z,3.98
2018-08-09T11:35:36.285Z,4.70
2018-08-09T11:38:06.895Z,3.85
2018-08-09T11:40:40.600Z,4.25
2018-08-09T11:43:10.650Z,4.15
2018-08-09T11:45:40.231Z,4.42
2018-08-09T11:48:09.661Z,4.25
2018-08-09T11:51:13.445Z,4.50
2018-08-09T11:53:42.939Z,3.90
2018-08-09T11:56:13.039Z,4.08
2018-08-09T11:58:42.997Z,4.50
2018-08-09T12:01:14.421Z,3.92
2018-08-09T12:03:43.770Z,3.75
2018-08-09T12:06:12.956Z,3.35
2018-08-09T12:08:42.618Z,3.35
2018-08-09T12:11:16.031Z,3.70
2018-08-09T12:13:45.528Z,3.80
2018-08-09T12:16:15.023Z,3.77
2018-08-09T12:18:44.530Z,3.22
2018-08-09T12:21:15.103Z,3.60
2018-08-09T12:23:44.595Z,3.50
2018-08-09T12:26:14.061Z,3.90
2018-08-09T12:28:44.303Z,3.08
2018-08-09T12:31:16.085Z,3.22
2018-08-09T12:33:53.102Z,3.30
2018-08-09T12:36:22.383Z,3.35
2018-08-09T12:38:51.868Z,2.85
2018-08-09T12:41:31.694Z,2.70
2018-08-09T12:44:01.999Z,3.22
2018-08-09T12:46:31.469Z,3.15
2018-08-09T12:49:00.905Z,2.85
2018-08-09T12:51:30.338Z,2.83
2018-08-09T12:53:59.742Z,2.92
2018-08-09T12:56:36.495Z,3.08
2018-08-09T12:59:05.746Z,2.95
2018-08-09T13:01:36.238Z,2.72
2018-08-09T13:04:06.103Z,3.15
2018-08-09T13:06:35.537Z,2.58
2018-08-09T13:09:08.027Z,2.60
2018-08-09T13:11:52.407Z,2.77
2018-08-09T13:14:21.873Z,3.15
2018-08-09T13:16:51.334Z,2.58
2018-08-09T13:19:20.782Z,3.12
2018-08-09T13:22:05.297Z,3.10
2018-08-09T13:24:34.658Z,2.95
2018-08-09T13:27:04.041Z,2.80
2018-08-09T13:29:34.058Z,2.98
2018-08-09T13:32:05.575Z,2.92
2018-08-09T13:34:34.983Z,2.90
2018-08-09T13:37:04.828Z,2.90
2018-08-09T13:39:34.310Z,2.62
2018-08-09T13:42:09.669Z,3.22
2018-08-09T13:44:39.065Z,2.72
2018-08-09T13:47:08.468Z,2.98
2018-08-09T13:49:37.578Z,3.62
2018-08-09T13:52:08.402Z,3.05
2018-08-09T13:54:37.628Z,2.95
2018-08-09T13:57:06.737Z,2.87
2018-08-09T13:59:35.854Z,3.02
2018-08-09T14:02:06.023Z,3.10
2018-08-09T14:04:35.168Z,2.98
2018-08-09T14:07:04.064Z,2.98
2018-08-09T14:09:33.208Z,3.05
2018-08-09T14:12:04.429Z,2.90
2018-08-09T14:14:33.601Z,3.10
2018-08-09T14:17:02.717Z,3.00
2018-08-09T14:19:31.841Z,3.00
2018-08-09T14:22:02.721Z,2.90
2018-08-09T14:24:31.949Z,2.80
2018-08-09T14:27:01.087Z,2.20
2018-08-09T14:29:30.473Z,2.92
2018-08-09T14:31:59.946Z,2.62
2018-08-09T14:34:29.557Z,2.40
2018-08-09T14:36:59.181Z,2.87
2018-08-09T14:39:28.603Z,2.75
2018-08-09T14:41:58.016Z,2.47
2018-08-09T14:44:27.085Z,2.65
2018-08-09T14:46:56.210Z,2.52
2018-08-09T14:49:25.402Z,3.05
2018-08-09T14:51:55.593Z,2.35
2018-08-09T14:54:24.701Z,2.47
2018-08-09T14:56:54.333Z,2.47
2018-08-09T14:59:23.669Z,2.70
2018-08-09T15:02:12.068Z,2.85
2018-08-09T15:04:41.236Z,2.60
2018-08-09T15:07:10.347Z,2.80
2018-08-09T15:09:39.450Z,3.33
2018-08-09T15:12:10.699Z,2.77
2018-08-09T15:14:40.007Z,3.15
2018-08-09T15:17:10.234Z,3.00
2018-08-09T15:19:40.240Z,3.08
2018-08-09T15:22:16.879Z,3.42
2018-08-09T15:24:46.377Z,3.50
2018-08-09T15:27:15.494Z,7.83
2018-08-09T15:29:44.612Z,6.95
2018-08-09T15:32:46.856Z,5.30
2018-08-09T15:35:15.848Z,4.03
2018-08-09T15:37:45.370Z,4.05
2018-08-09T15:40:15.349Z,4.20
2018-08-09T15:42:44.560Z,3.85
2018-08-09T15:45:15.349Z,2.83
2018-08-09T15:47:44.751Z,3.60
2018-08-09T15:50:17.214Z,2.90
2018-08-09T15:52:46.625Z,2.83
2018-08-09T15:55:18.052Z,2.55
2018-08-09T15:57:47.849Z,2.92
2018-08-09T16:00:22.094Z,3.05
2018-08-09T16:02:51.527Z,2.77
2018-08-09T16:05:21.011Z,2.65
2018-08-09T16:07:50.357Z,2.72
2018-08-09T16:10:19.935Z,2.90
2018-08-09T16:12:49.553Z,3.00
2018-08-09T16:15:19.931Z,2.40
2018-08-09T16:17:49.974Z,2.30
2018-08-09T16:20:19.518Z,2.72
2018-08-09T16:22:48.861Z,2.15
2018-08-09T16:25:19.861Z,2.90
2018-08-09T16:27:50.175Z,1.90
2018-08-09T16:30:23.705Z,2.20
2018-08-09T16:32:53.062Z,2.67
2018-08-09T16:35:22.410Z,2.45
2018-08-09T16:37:51.753Z,2.77
2018-08-09T16:40:24.768Z,2.92
2018-08-09T16:42:54.249Z,2.30
2018-08-09T16:45:24.737Z,2.30
2018-08-09T16:48:02.759Z,2.58
2018-08-09T16:50:40.547Z,2.47
2018-08-09T16:53:09.810Z,2.20
2018-08-09T16:55:39.325Z,2.65
2018-08-09T16:58:08.952Z,2.00
2018-08-09T17:00:38.470Z,2.65
2018-08-09T17:03:07.967Z,2.55
2018-08-09T17:05:37.303Z,2.45
2018-08-09T17:08:06.743Z,2.72
2018-08-09T17:10:59.585Z,2.58
2018-08-09T17:13:29.566Z,2.40
2018-08-09T17:16:08.267Z,2.40
2018-08-09T17:18:37.434Z,2.77
2018-08-09T17:21:07.826Z,2.27
2018-08-09T17:23:37.210Z,1.87
2018-08-09T17:26:06.749Z,2.65
2018-08-09T17:28:36.193Z,2.55
2018-08-09T17:31:06.717Z,2.25
2018-08-09T17:33:36.708Z,2.22
2018-08-09T17:36:06.277Z,2.40
2018-08-09T17:38:35.661Z,1.92
2018-08-09T17:43:36.629Z,2.77
2018-08-09T17:46:06.096Z,2.12
2018-08-09T17:48:35.844Z,2.62
2018-08-09T17:51:07.070Z,3.15
2018-08-09T17:53:36.209Z,2.72
2018-08-09T17:56:05.492Z,2.50
2018-08-09T17:58:34.604Z,2.27
2018-08-09T18:01:04.484Z,2.30
2018-08-09T18:03:33.894Z,2.75
2018-08-09T18:06:03.754Z,3.20
2018-08-09T18:08:33.125Z,2.37
2018-08-09T18:11:02.510Z,2.40
2018-08-09T18:13:31.834Z,2.60
2018-08-09T18:16:01.221Z,2.55
2018-08-09T18:18:30.716Z,2.30
2018-08-09T18:21:14.692Z,2.30
2018-08-09T18:23:44.112Z,2.00
2018-08-09T18:26:13.753Z,2.90
2018-08-09T18:28:42.981Z,2.58
2018-08-09T18:31:16.904Z,2.45
2018-08-09T18:33:46.560Z,2.25
2018-08-09T18:36:15.640Z,2.15
2018-08-09T18:38:44.779Z,2.50
2018-08-09T18:41:40.893Z,2.70
2018-08-09T18:44:10.017Z,2.67
2018-08-09T18:46:39.096Z,2.52
2018-08-09T18:49:08.405Z,2.50
2018-08-09T18:51:47.240Z,2.92
2018-08-09T18:54:16.367Z,2.47
2018-08-09T18:56:46.559Z,2.67
2018-08-09T18:59:15.689Z,2.65
2018-08-09T19:01:48.940Z,2.63
2018-08-09T19:04:18.069Z,2.20
2018-08-09T19:06:47.321Z,2.30
2018-08-09T19:09:16.812Z,2.50
2018-08-09T19:11:47.029Z,2.22
2018-08-09T19:14:16.184Z,2.30
2018-08-09T19:16:45.356Z,2.08
2018-08-09T19:19:14.521Z,2.27
2018-08-09T19:21:45.724Z,2.47
2018-08-09T19:24:15.667Z,2.07
2018-08-09T19:26:46.157Z,2.20
2018-08-09T19:29:15.882Z,2.10
2018-08-09T19:31:47.908Z,1.90
2018-08-09T19:34:17.246Z,2.10
2018-08-09T19:36:47.125Z,2.27
2018-08-09T19:39:16.546Z,2.13
2018-08-09T19:41:55.687Z,2.17
2018-08-09T19:44:25.111Z,1.73
2018-08-09T19:46:54.473Z,2.37
2018-08-09T19:49:23.990Z,2.80
2018-08-09T19:51:53.469Z,2.50
2018-08-09T19:54:22.878Z,2.50
2018-08-09T19:56:52.054Z,2.33
2018-08-09T19:59:21.218Z,2.23
2018-08-09T20:01:50.381Z,2.53
2018-08-09T20:04:19.498Z,3.37
2018-08-09T20:06:48.694Z,2.03
2018-08-09T20:09:18.435Z,2.98
2018-08-09T20:12:09.018Z,2.50
2018-08-09T20:14:38.289Z,2.20
2018-08-09T20:17:07.741Z,2.40
2018-08-09T20:19:36.879Z,2.20
2018-08-09T20:22:15.935Z,2.10
2018-08-09T20:24:45.633Z,2.50
2018-08-09T20:27:15.514Z,2.50
2018-08-09T20:32:18.593Z,2.53
2018-08-09T20:34:47.789Z,2.70
2018-08-09T20:37:16.944Z,2.30
2018-08-09T20:39:46.114Z,2.70
2018-08-09T20:42:18.638Z,2.90
2018-08-09T20:44:47.950Z,3.00
2018-08-09T20:47:17.321Z,2.30
2018-08-09T20:49:46.789Z,2.60
2018-08-09T20:52:20.734Z,2.53
2018-08-09T20:54:50.122Z,2.57
2018-08-09T20:57:19.642Z,2.20
2018-08-09T20:59:49.057Z,2.43
2018-08-09T21:02:20.674Z,2.80
2018-08-09T21:04:50.644Z,2.43
2018-08-09T21:07:20.158Z,2.30
2018-08-09T21:09:59.238Z,2.40
2018-08-09T21:12:28.694Z,2.23
2018-08-09T21:14:58.146Z,2.47
2018-08-09T21:17:27.536Z,2.50
2018-08-09T21:19:56.864Z,2.53
2018-08-09T21:22:29.949Z,2.10
2018-08-09T21:24:59.259Z,2.83
2018-08-09T21:27:28.777Z,2.53
2018-08-09T21:29:58.217Z,2.40
2018-08-09T21:32:28.752Z,1.90
2018-08-09T21:34:58.100Z,2.10
2018-08-09T21:37:27.482Z,2.50
2018-08-09T21:39:56.865Z,2.70
2018-08-09T21:42:31.645Z,1.97
2018-08-09T21:45:00.984Z,2.07
2018-08-09T21:47:30.754Z,2.40
2018-08-09T21:50:00.114Z,2.30
2018-08-09T21:52:43.552Z,2.50
2018-08-09T21:55:13.301Z,2.43
2018-08-09T21:57:43.657Z,2.47
2018-08-09T22:00:52.609Z,2.37
2018-08-09T22:03:27.646Z,2.20
2018-08-09T22:06:02.265Z,2.40
2018-08-09T22:08:37.534Z,2.70
2018-08-09T22:11:12.920Z,2.20
2018-08-09T22:13:47.479Z,2.40
2018-08-09T22:16:22.148Z,2.87
2018-08-09T22:18:57.421Z,2.37
2018-08-09T22:21:32.107Z,2.40
2018-08-09T22:24:01.738Z,2.20
2018-08-09T22:26:31.157Z,2.30
2018-08-09T22:29:00.611Z,2.60
2018-08-09T22:31:31.046Z,2.07
2018-08-09T22:34:00.405Z,2.07
2018-08-09T22:36:29.902Z,2.20
2018-08-09T22:38:59.333Z,2.40
2018-08-09T22:41:51.706Z,2.50
2018-08-09T22:44:21.095Z,1.83
2018-08-09T22:46:50.533Z,2.47
2018-08-09T22:49:20.073Z,2.30
2018-08-09T22:51:54.813Z,2.07
2018-08-09T22:54:24.263Z,2.30
2018-08-09T22:56:53.653Z,2.17
2018-08-09T22:59:23.025Z,2.13
2018-08-09T23:01:52.495Z,1.90
2018-08-09T23:04:21.965Z,2.63
2018-08-09T23:06:51.294Z,1.63
2018-08-09T23:09:20.707Z,1.80
2018-08-09T23:11:57.964Z,2.20
2018-08-09T23:14:27.331Z,1.90
2018-08-09T23:16:56.730Z,1.73
2018-08-09T23:19:26.089Z,1.93
2018-08-09T23:22:08.681Z,2.00
2018-08-09T23:24:38.021Z,2.00
2018-08-09T23:27:07.493Z,1.70
2018-08-09T23:29:36.881Z,2.00
2018-08-09T23:32:30.793Z,2.13
2018-08-09T23:35:00.286Z,1.60
2018-08-09T23:37:29.644Z,2.13
2018-08-09T23:39:58.987Z,2.00
2018-08-09T23:42:53.757Z,2.03
2018-08-09T23:45:23.421Z,1.50
2018-08-09T23:47:52.780Z,1.67
2018-08-09T23:50:22.101Z,1.80
2018-08-09T23:52:51.519Z,1.50
2018-08-09T23:55:20.864Z,1.80
2018-08-09T23:57:50.285Z,1.33
